Flight Track Log - Related Links

Times and Time Zones

All times are in EDT time to prevent confusion due to time zone crossing. See the UAL3773 flight status page for this flight to view local times or setup timezone preferences in your user account.

Time Position Orientation Groundspeed Altitude Reporting Facility
EDT Latitude Longitude Course Direction KTS MPH feet Rate Location/Type
Tue 10:25:15 AM 35.1969 -80.9356 72° East 147 169 1,300  Level Atlanta Center
Tue 10:26:10 AM 35.1511 -80.9294 174° South 191 220 2,900 2,213 Climbing Atlanta Center
Tue 10:27:17 AM 35.0950 -80.8581 134° Southeast 284 327 5,800 2,852 Climbing Atlanta Center
Tue 10:28:00 AM 35.2248 -80.5490 30° Northeast  Level FlightAware Approximate
Tue 10:28:12 AM 35.1053 -80.7764 81° East 288 331 8,700  Level Atlanta Center
Tue 10:28:41 AM 35.1231 -80.7375 61° Northeast 289 333 9,500 2,262 Climbing Atlanta Center
Tue 10:29:00 AM 35.3167 -80.4729 90° East  Level FlightAware Approximate
Tue 10:29:13 AM 35.1489 -80.6933 54° Northeast 296 341 11,000  Level Atlanta Center
Tue 10:29:41 AM 35.1647 -80.6572 62° Northeast 322 371 11,500 1,977 Climbing Atlanta Center
Tue 10:30:00 AM 35.3620 -80.3581 72° East  Level FlightAware Approximate
Tue 10:30:41 AM 35.2183 -80.5583 56° Northeast 335 386 13,900  Level Atlanta Center
Tue 10:32:58 AM 35.3519 -80.3006 58° Northeast 387 445 18,100 1,797 Climbing Washington Center
Tue 10:33:58 AM 35.4147 -80.1847 56° Northeast 393 452 19,800 1,750 Climbing Washington Center
Tue 10:34:58 AM 35.4575 -80.0494 69° East 403 464 21,600 1,600 Climbing Washington Center
Tue 10:35:58 AM 35.4939 -79.9111 72° East 413 475 23,000 1,550 Climbing Washington Center
Tue 10:36:58 AM 35.5306 -79.7625 73° East 432 497 24,700 1,400 Climbing Washington Center
Tue 10:37:58 AM 35.5689 -79.6139 72° East 438 504 25,800 1,150 Climbing Washington Center
Tue 10:38:58 AM 35.6075 -79.4600 73° East 456 525 27,000 600 Climbing Washington Center
Tue 10:39:58 AM 35.6761 -79.3303 57° Northeast 462 532 27,000  Level Washington Center
Tue 10:40:58 AM 35.7917 -79.2411 32° Northeast 450 518 27,000  Level Washington Center
Tue 10:41:58 AM 35.9050 -79.1514 33° Northeast 463 533 27,000  Level Washington Center
Tue 10:42:58 AM 36.0161 -79.0639 32° Northeast 469 540 27,000  Level Washington Center
Tue 10:43:58 AM 36.1292 -78.9736 33° Northeast 482 555 27,000  Level Washington Center
Tue 10:44:58 AM 36.2400 -78.8858 33° Northeast 482 555 27,000  Level Washington Center
Tue 10:45:58 AM 36.3531 -78.7953 33° Northeast 477 549 27,000  Level Washington Center
Tue 10:46:58 AM 36.4661 -78.7042 33° Northeast 477 549 27,000  Level Washington Center
Tue 10:47:58 AM 36.5769 -78.6128 34° Northeast 477 549 27,000  Level Washington Center
Tue 10:48:58 AM 36.6900 -78.5189 34° Northeast 477 549 27,000  Level Washington Center
Tue 10:49:58 AM 36.7983 -78.4322 33° Northeast 472 543 27,000  Level Washington Center
Tue 10:50:58 AM 36.9069 -78.3453 33° Northeast 472 543 27,000  Level Washington Center
Tue 10:51:58 AM 37.0047 -78.2603 35° Northeast 472 543 27,000  Level Washington Center
Tue 10:52:58 AM 37.1236 -78.1628 33° Northeast 472 543 27,000  Level Washington Center
Tue 10:53:58 AM 37.2319 -78.0753 33° Northeast 466 536 27,000  Level Washington Center
Tue 10:54:58 AM 37.3400 -77.9872 33° Northeast 466 536 27,000  Level Washington Center
Tue 10:55:58 AM 37.4503 -77.8967 33° Northeast 466 536 27,000  Level Washington Center
Tue 10:56:58 AM 37.5606 -77.8081 32° Northeast 472 543 27,000 -600 Level Washington Center
Tue 10:57:58 AM 37.6764 -77.7433 24° Northeast 467 537 25,800 -2,500 Descending Washington Center
Tue 10:58:58 AM 37.7881 -77.6783 25° Northeast 452 520 22,000 -3,750 Descending Washington Center
Tue 10:59:58 AM 37.8914 -77.6178 25° Northeast 428 493 18,300 -3,500 Descending Washington Center
Tue 11:00:58 AM 37.9881 -77.5600 25° Northeast 409 471 15,000 -3,500 Descending Washington Center
Tue 11:01:58 AM 38.0725 -77.5094 25° Northeast 370 426 11,300 -2,500 Descending Washington Center
Tue 11:02:58 AM 38.1631 -77.4536 26° Northeast 340 391 10,000 -650 Descending Washington Center
Tue 11:03:58 AM 38.2386 -77.4106 24° Northeast 308 354 10,000 -300 Level Washington Center
Tue 11:04:58 AM 38.2956 -77.3747 26° Northeast 263 303 9,400 -950 Descending Washington Center
Tue 11:05:58 AM 38.3647 -77.3500 16° North 242 278 8,100 -1,250 Descending Washington Center
Tue 11:06:58 AM 38.4314 -77.3569 355° North 234 269 6,900 -1,200 Descending Washington Center
Tue 11:07:58 AM 38.5003 -77.3558 North 234 269 5,700 -900 Descending Washington Center
Tue 11:08:58 AM 38.5628 -77.3600 357° North 239 275 5,100 -700 Descending Washington Center
Tue 11:09:58 AM 38.6272 -77.3589 North 239 275 4,300 -579 Descending Washington Center
Tue 11:10:52 AM 38.7000 -77.3667 355° North 238 274 4,000 -158 Descending Potomac TRACON
Tue 11:11:52 AM 38.7667 -77.3500 11° North 241 277 4,000  Level Potomac TRACON
Tue 11:12:52 AM 38.8333 -77.3500 360° North 242 278 4,000  Level Potomac TRACON
Tue 11:13:52 AM 38.9000 -77.3500 360° North 222 255 4,000  Level Potomac TRACON
Tue 11:14:47 AM 38.9500 -77.3500 360° North 225 259 4,000  Level Potomac TRACON
Tue 11:15:53 AM 39.0167 -77.3500 360° North 226 260 4,000  Level Potomac TRACON
Tue 11:16:47 AM 39.0833 -77.3500 360° North 224 258 4,000  Level Potomac TRACON
Tue 11:17:47 AM 39.1333 -77.3500 360° North 222 255 4,000  Level Potomac TRACON
Tue 11:18:48 AM 39.2000 -77.3500 360° North 221 254 4,000  Level Potomac TRACON
Tue 11:19:48 AM 39.2667 -77.3333 11° North 223 257 4,000  Level Potomac TRACON
Tue 11:20:48 AM 39.3167 -77.3333 360° North 222 255 4,000  Level Potomac TRACON
Tue 11:21:48 AM 39.3500 -77.3833 311° West 201 231 4,000 -52 Level Potomac TRACON
Tue 11:22:43 AM 39.3333 -77.4167 237° Southwest 179 206 3,900 -522 Descending Potomac TRACON
Tue 11:23:43 AM 39.2833 -77.4333 194° South 161 185 3,000 -450 Descending Potomac TRACON
Tue 11:24:43 AM 39.2500 -77.4333 180° South 161 185 3,000  Level Potomac TRACON
Tue 11:25:43 AM 39.2000 -77.4333 180° South 158 182 3,000 -50 Level Potomac TRACON
Tue 11:26:43 AM 39.1500 -77.4333 180° South 153 176 2,900 -300 Descending Potomac TRACON
Tue 11:27:43 AM 39.1167 -77.4333 180° South 159 183 2,400 -446 Descending Potomac TRACON
Tue 11:28:44 AM 39.0667 -77.4333 180° South 159 183 2,000 -393 Descending Potomac TRACON

Login

Don't have an account? Register now (free) for customized features, flight alerts, and more!